sensor_id;sensor_type;location;lat;lon;timestamp;temperature;humidity
25438;DHT22;13364;49.084;9.978;2023-11-22T05:00:21;1.40;100.00
25438;DHT22;13364;49.084;9.978;2023-11-22T05:02:49;1.40;100.00
25438;DHT22;13364;49.084;9.978;2023-11-22T05:05:16;1.30;100.00
25438;DHT22;13364;49.084;9.978;2023-11-22T05:07:43;1.40;100.00
25438;DHT22;13364;49.084;9.978;2023-11-22T05:10:13;1.30;100.00
25438;DHT22;13364;49.084;9.978;2023-11-22T05:12:40;1.40;100.00
25438;DHT22;13364;49.084;9.978;2023-11-22T05:15:07;1.40;100.00
25438;DHT22;13364;49.084;9.978;2023-11-22T05:17:34;1.40;100.00
25438;DHT22;13364;49.084;9.978;2023-11-22T05:20:02;1.40;100.00
25438;DHT22;13364;49.084;9.978;2023-11-22T05:22:29;1.40;100.00
25438;DHT22;13364;49.084;9.978;2023-11-22T05:24:56;1.40;100.00
25438;DHT22;13364;49.084;9.978;2023-11-22T05:27:23;1.40;100.00
25438;DHT22;13364;49.084;9.978;2023-11-22T05:29:50;1.40;100.00
25438;DHT22;13364;49.084;9.978;2023-11-22T05:32:21;1.50;100.00
25438;DHT22;13364;49.084;9.978;2023-11-22T05:34:48;1.50;100.00
25438;DHT22;13364;49.084;9.978;2023-11-22T05:37:14;1.50;100.00
25438;DHT22;13364;49.084;9.978;2023-11-22T05:39:41;1.60;100.00
25438;DHT22;13364;49.084;9.978;2023-11-22T05:42:08;1.60;100.00
25438;DHT22;13364;49.084;9.978;2023-11-22T05:44:35;1.70;100.00
25438;DHT22;13364;49.084;9.978;2023-11-22T05:47:02;1.70;100.00
25438;DHT22;13364;49.084;9.978;2023-11-22T05:49:28;1.80;100.00
25438;DHT22;13364;49.084;9.978;2023-11-22T05:51:55;1.80;100.00
25438;DHT22;13364;49.084;9.978;2023-11-22T05:54:22;1.80;100.00
25438;DHT22;13364;49.084;9.978;2023-11-22T05:56:49;1.80;100.00
25438;DHT22;13364;49.084;9.978;2023-11-22T05:59:15;1.70;100.00
25438;DHT22;13364;49.084;9.978;2023-11-22T06:01:42;1.70;100.00
25438;DHT22;13364;49.084;9.978;2023-11-22T06:04:09;1.60;100.00
25438;DHT22;13364;49.084;9.978;2023-11-22T06:06:36;1.60;100.00
25438;DHT22;13364;49.084;9.978;2023-11-22T06:09:03;1.50;100.00
25438;DHT22;13364;49.084;9.978;2023-11-22T06:11:32;1.50;100.00
25438;DHT22;13364;49.084;9.978;2023-11-22T06:13:59;1.50;100.00
25438;DHT22;13364;49.084;9.978;2023-11-22T06:16:25;1.50;100.00
25438;DHT22;13364;49.084;9.978;2023-11-22T06:18:52;1.60;100.00
25438;DHT22;13364;49.084;9.978;2023-11-22T06:21:19;1.60;100.00
25438;DHT22;13364;49.084;9.978;2023-11-22T06:23:46;1.60;100.00
25438;DHT22;13364;49.084;9.978;2023-11-22T06:26:12;1.60;100.00
25438;DHT22;13364;49.084;9.978;2023-11-22T06:28:41;1.50;100.00
25438;DHT22;13364;49.084;9.978;2023-11-22T06:31:09;1.40;100.00
25438;DHT22;13364;49.084;9.978;2023-11-22T06:33:36;1.30;100.00
25438;DHT22;13364;49.084;9.978;2023-11-22T06:36:03;1.10;100.00
25438;DHT22;13364;49.084;9.978;2023-11-22T06:38:30;1.00;100.00
25438;DHT22;13364;49.084;9.978;2023-11-22T06:40:56;0.90;100.00
25438;DHT22;13364;49.084;9.978;2023-11-22T06:43:24;0.70;100.00
25438;DHT22;13364;49.084;9.978;2023-11-22T06:45:51;0.60;100.00
25438;DHT22;13364;49.084;9.978;2023-11-22T06:48:17;0.60;100.00
25438;DHT22;13364;49.084;9.978;2023-11-22T06:50:45;0.50;100.00
25438;DHT22;13364;49.084;9.978;2023-11-22T06:53:12;0.50;100.00
25438;DHT22;13364;49.084;9.978;2023-11-22T06:55:38;0.50;100.00
25438;DHT22;13364;49.084;9.978;2023-11-22T06:58:05;0.50;100.00
25438;DHT22;13364;49.084;9.978;2023-11-22T07:00:34;0.50;100.00
25438;DHT22;13364;49.084;9.978;2023-11-22T07:03:01;0.50;100.00
25438;DHT22;13364;49.084;9.978;2023-11-22T07:05:28;0.40;100.00
25438;DHT22;13364;49.084;9.978;2023-11-22T07:07:56;0.40;100.00
25438;DHT22;13364;49.084;9.978;2023-11-22T07:10:23;0.30;100.00
25438;DHT22;13364;49.084;9.978;2023-11-22T07:12:50;0.20;100.00
25438;DHT22;13364;49.084;9.978;2023-11-22T07:15:17;0.20;100.00
25438;DHT22;13364;49.084;9.978;2023-11-22T07:17:44;0.20;100.00
25438;DHT22;13364;49.084;9.978;2023-11-22T07:20:11;0.10;100.00
25438;DHT22;13364;49.084;9.978;2023-11-22T07:22:43;0.10;100.00
25438;DHT22;13364;49.084;9.978;2023-11-22T07:25:10;0.10;100.00
25438;DHT22;13364;49.084;9.978;2023-11-22T07:27:45;0.10;100.00
25438;DHT22;13364;49.084;9.978;2023-11-22T07:30:15;0.00;100.00
25438;DHT22;13364;49.084;9.978;2023-11-22T07:32:42;0.00;100.00
25438;DHT22;13364;49.084;9.978;2023-11-22T07:35:10;0.00;100.00
25438;DHT22;13364;49.084;9.978;2023-11-22T07:37:38;0.00;100.00
25438;DHT22;13364;49.084;9.978;2023-11-22T07:40:11;0.00;100.00
25438;DHT22;13364;49.084;9.978;2023-11-22T07:42:41;0.00;100.00
25438;DHT22;13364;49.084;9.978;2023-11-22T07:45:09;0.00;100.00
25438;DHT22;13364;49.084;9.978;2023-11-22T07:47:38;-0.10;100.00
25438;DHT22;13364;49.084;9.978;2023-11-22T07:50:09;-0.10;100.00
25438;DHT22;13364;49.084;9.978;2023-11-22T07:52:38;0.00;100.00
25438;DHT22;13364;49.084;9.978;2023-11-22T07:55:07;0.00;100.00
25438;DHT22;13364;49.084;9.978;2023-11-22T07:57:35;0.00;100.00
25438;DHT22;13364;49.084;9.978;2023-11-22T08:00:01;0.00;100.00
25438;DHT22;13364;49.084;9.978;2023-11-22T08:02:37;0.00;100.00
25438;DHT22;13364;49.084;9.978;2023-11-22T08:05:09;0.00;100.00
25438;DHT22;13364;49.084;9.978;2023-11-22T08:07:37;0.00;100.00
25438;DHT22;13364;49.084;9.978;2023-11-22T08:10:09;0.00;100.00
25438;DHT22;13364;49.084;9.978;2023-11-22T08:12:36;0.00;100.00
25438;DHT22;13364;49.084;9.978;2023-11-22T08:15:04;0.00;100.00
25438;DHT22;13364;49.084;9.978;2023-11-22T08:17:31;0.00;100.00
25438;DHT22;13364;49.084;9.978;2023-11-22T08:19:59;0.00;100.00
25438;DHT22;13364;49.084;9.978;2023-11-22T08:22:26;0.00;100.00
25438;DHT22;13364;49.084;9.978;2023-11-22T08:24:55;0.00;100.00
25438;DHT22;13364;49.084;9.978;2023-11-22T08:27:23;0.00;100.00
25438;DHT22;13364;49.084;9.978;2023-11-22T08:29:50;0.00;100.00
25438;DHT22;13364;49.084;9.978;2023-11-22T08:32:17;0.10;100.00
25438;DHT22;13364;49.084;9.978;2023-11-22T08:34:47;0.20;100.00
25438;DHT22;13364;49.084;9.978;2023-11-22T08:37:14;0.10;100.00
25438;DHT22;13364;49.084;9.978;2023-11-22T08:39:40;0.10;100.00
25438;DHT22;13364;49.084;9.978;2023-11-22T08:42:08;0.10;100.00
25438;DHT22;13364;49.084;9.978;2023-11-22T08:44:36;0.10;100.00
25438;DHT22;13364;49.084;9.978;2023-11-22T08:47:03;0.10;100.00
25438;DHT22;13364;49.084;9.978;2023-11-22T08:49:30;0.20;100.00
25438;DHT22;13364;49.084;9.978;2023-11-22T08:51:57;0.20;100.00
25438;DHT22;13364;49.084;9.978;2023-11-22T08:54:26;0.20;100.00
25438;DHT22;13364;49.084;9.978;2023-11-22T08:56:59;0.20;100.00
25438;DHT22;13364;49.084;9.978;2023-11-22T08:59:26;0.30;100.00
25438;DHT22;13364;49.084;9.978;2023-11-22T09:01:53;0.30;100.00
25438;DHT22;13364;49.084;9.978;2023-11-22T09:04:20;0.40;100.00
25438;DHT22;13364;49.084;9.978;2023-11-22T09:06:47;0.40;100.00
25438;DHT22;13364;49.084;9.978;2023-11-22T09:09:14;0.40;100.00
25438;DHT22;13364;49.084;9.978;2023-11-22T09:11:42;0.50;100.00
25438;DHT22;13364;49.084;9.978;2023-11-22T09:14:09;0.40;100.00
25438;DHT22;13364;49.084;9.978;2023-11-22T09:16:37;0.40;100.00
25438;DHT22;13364;49.084;9.978;2023-11-22T09:19:06;0.50;100.00
25438;DHT22;13364;49.084;9.978;2023-11-22T09:21:33;0.50;100.00
25438;DHT22;13364;49.084;9.978;2023-11-22T09:24:00;0.50;100.00
25438;DHT22;13364;49.084;9.978;2023-11-22T09:26:27;0.50;100.00
25438;DHT22;13364;49.084;9.978;2023-11-22T09:28:54;0.50;100.00
25438;DHT22;13364;49.084;9.978;2023-11-22T09:31:21;0.50;100.00
25438;DHT22;13364;49.084;9.978;2023-11-22T09:33:48;0.60;100.00
25438;DHT22;13364;49.084;9.978;2023-11-22T09:36:15;0.60;100.00
25438;DHT22;13364;49.084;9.978;2023-11-22T09:38:42;0.70;100.00
25438;DHT22;13364;49.084;9.978;2023-11-22T09:41:09;0.70;100.00
25438;DHT22;13364;49.084;9.978;2023-11-22T09:43:36;0.60;100.00
25438;DHT22;13364;49.084;9.978;2023-11-22T09:46:05;0.50;100.00
25438;DHT22;13364;49.084;9.978;2023-11-22T09:48:32;0.50;100.00
25438;DHT22;13364;49.084;9.978;2023-11-22T09:56:20;0.60;100.00
25438;DHT22;13364;49.084;9.978;2023-11-22T09:58:54;0.60;100.00
25438;DHT22;13364;49.084;9.978;2023-11-22T10:01:22;0.70;100.00
25438;DHT22;13364;49.084;9.978;2023-11-22T10:03:49;0.70;100.00
25438;DHT22;13364;49.084;9.978;2023-11-22T10:06:18;0.70;100.00
25438;DHT22;13364;49.084;9.978;2023-11-22T10:08:44;0.70;100.00
25438;DHT22;13364;49.084;9.978;2023-11-22T10:11:17;0.80;100.00
25438;DHT22;13364;49.084;9.978;2023-11-22T10:13:49;0.70;100.00
25438;DHT22;13364;49.084;9.978;2023-11-22T10:16:17;0.60;100.00
25438;DHT22;13364;49.084;9.978;2023-11-22T10:18:47;0.60;100.00
25438;DHT22;13364;49.084;9.978;2023-11-22T10:23:48;0.50;100.00
25438;DHT22;13364;49.084;9.978;2023-11-22T10:26:15;0.50;100.00
25438;DHT22;13364;49.084;9.978;2023-11-22T10:28:42;0.40;100.00
25438;DHT22;13364;49.084;9.978;2023-11-22T10:31:11;0.40;100.00
25438;DHT22;13364;49.084;9.978;2023-11-22T10:33:42;0.40;100.00
25438;DHT22;13364;49.084;9.978;2023-11-22T10:36:10;0.50;100.00
25438;DHT22;13364;49.084;9.978;2023-11-22T10:38:36;0.50;100.00
25438;DHT22;13364;49.084;9.978;2023-11-22T10:41:04;0.50;100.00
25438;DHT22;13364;49.084;9.978;2023-11-22T10:43:31;0.60;100.00
25438;DHT22;13364;49.084;9.978;2023-11-22T10:46:02;0.70;100.00
25438;DHT22;13364;49.084;9.978;2023-11-22T10:48:29;0.70;100.00
25438;DHT22;13364;49.084;9.978;2023-11-22T10:50:57;0.70;100.00
25438;DHT22;13364;49.084;9.978;2023-11-22T10:56:07;0.80;100.00
25438;DHT22;13364;49.084;9.978;2023-11-22T10:58:48;0.90;100.00
25438;DHT22;13364;49.084;9.978;2023-11-22T11:01:16;0.90;100.00
25438;DHT22;13364;49.084;9.978;2023-11-22T11:04:11;0.90;100.00
25438;DHT22;13364;49.084;9.978;2023-11-22T11:06:47;0.90;100.00
25438;DHT22;13364;49.084;9.978;2023-11-22T11:09:19;1.00;100.00
25438;DHT22;13364;49.084;9.978;2023-11-22T11:11:48;1.00;100.00
25438;DHT22;13364;49.084;9.978;2023-11-22T11:14:16;0.90;100.00
25438;DHT22;13364;49.084;9.978;2023-11-22T11:16:44;0.90;100.00
25438;DHT22;13364;49.084;9.978;2023-11-22T11:19:15;0.90;100.00
25438;DHT22;13364;49.084;9.978;2023-11-22T11:21:44;0.90;100.00
25438;DHT22;13364;49.084;9.978;2023-11-22T11:24:11;1.00;100.00
25438;DHT22;13364;49.084;9.978;2023-11-22T11:26:38;1.10;100.00
25438;DHT22;13364;49.084;9.978;2023-11-22T11:29:05;1.20;100.00
25438;DHT22;13364;49.084;9.978;2023-11-22T11:31:38;1.30;100.00
25438;DHT22;13364;49.084;9.978;2023-11-22T11:34:07;1.40;100.00
25438;DHT22;13364;49.084;9.978;2023-11-22T11:36:37;1.40;100.00
25438;DHT22;13364;49.084;9.978;2023-11-22T11:39:05;1.40;100.00
25438;DHT22;13364;49.084;9.978;2023-11-22T11:41:38;1.30;100.00
25438;DHT22;13364;49.084;9.978;2023-11-22T11:44:09;1.20;100.00
25438;DHT22;13364;49.084;9.978;2023-11-22T11:46:38;1.10;100.00
25438;DHT22;13364;49.084;9.978;2023-11-22T11:49:12;1.00;100.00
25438;DHT22;13364;49.084;9.978;2023-11-22T11:51:40;1.00;100.00
25438;DHT22;13364;49.084;9.978;2023-11-22T11:54:09;1.00;100.00
25438;DHT22;13364;49.084;9.978;2023-11-22T11:56:39;1.00;100.00
25438;DHT22;13364;49.084;9.978;2023-11-22T11:59:08;1.00;100.00
25438;DHT22;13364;49.084;9.978;2023-11-22T12:01:34;1.00;100.00
25438;DHT22;13364;49.084;9.978;2023-11-22T12:04:02;1.00;100.00
25438;DHT22;13364;49.084;9.978;2023-11-22T12:06:29;0.90;100.00
25438;DHT22;13364;49.084;9.978;2023-11-22T12:09:00;0.90;100.00
25438;DHT22;13364;49.084;9.978;2023-11-22T12:11:27;0.90;100.00
25438;DHT22;13364;49.084;9.978;2023-11-22T12:13:54;0.90;100.00
25438;DHT22;13364;49.084;9.978;2023-11-22T12:16:22;0.90;100.00
25438;DHT22;13364;49.084;9.978;2023-11-22T12:18:50;0.90;100.00
25438;DHT22;13364;49.084;9.978;2023-11-22T12:21:18;0.80;100.00
25438;DHT22;13364;49.084;9.978;2023-11-22T12:23:46;0.80;100.00
25438;DHT22;13364;49.084;9.978;2023-11-22T12:26:17;0.80;100.00
25438;DHT22;13364;49.084;9.978;2023-11-22T12:28:48;0.80;100.00
25438;DHT22;13364;49.084;9.978;2023-11-22T12:31:30;0.80;100.00
25438;DHT22;13364;49.084;9.978;2023-11-22T12:34:02;0.80;100.00
25438;DHT22;13364;49.084;9.978;2023-11-22T12:36:29;0.80;100.00
25438;DHT22;13364;49.084;9.978;2023-11-22T12:38:57;0.80;100.00
25438;DHT22;13364;49.084;9.978;2023-11-22T12:41:30;0.80;100.00
25438;DHT22;13364;49.084;9.978;2023-11-22T12:44:06;0.80;100.00
25438;DHT22;13364;49.084;9.978;2023-11-22T12:46:51;0.90;100.00
25438;DHT22;13364;49.084;9.978;2023-11-22T12:49:24;0.90;100.00
25438;DHT22;13364;49.084;9.978;2023-11-22T12:51:52;0.90;100.00
25438;DHT22;13364;49.084;9.978;2023-11-22T12:54:20;1.00;100.00
25438;DHT22;13364;49.084;9.978;2023-11-22T12:56:52;1.10;100.00
25438;DHT22;13364;49.084;9.978;2023-11-22T12:59:24;1.10;98.90
25438;DHT22;13364;49.084;9.978;2023-11-22T13:01:54;1.20;99.60
25438;DHT22;13364;49.084;9.978;2023-11-22T13:04:21;1.20;100.00
25438;DHT22;13364;49.084;9.978;2023-11-22T13:06:48;1.30;99.40
25438;DHT22;13364;49.084;9.978;2023-11-22T13:09:15;1.30;99.10
25438;DHT22;13364;49.084;9.978;2023-11-22T13:11:43;1.20;98.30
25438;DHT22;13364;49.084;9.978;2023-11-22T13:14:10;1.20;98.10
25438;DHT22;13364;49.084;9.978;2023-11-22T13:16:40;1.10;97.80
25438;DHT22;13364;49.084;9.978;2023-11-22T13:19:07;1.00;98.30
25438;DHT22;13364;49.084;9.978;2023-11-22T13:21:35;0.90;98.70
25438;DHT22;13364;49.084;9.978;2023-11-22T13:24:02;0.90;98.80
25438;DHT22;13364;49.084;9.978;2023-11-22T13:26:32;0.70;99.30
25438;DHT22;13364;49.084;9.978;2023-11-22T13:29:01;0.60;99.70
25438;DHT22;13364;49.084;9.978;2023-11-22T13:31:27;0.60;99.50
25438;DHT22;13364;49.084;9.978;2023-11-22T13:33:54;0.60;99.60
25438;DHT22;13364;49.084;9.978;2023-11-22T13:36:21;0.60;99.20
25438;DHT22;13364;49.084;9.978;2023-11-22T13:38:48;0.60;98.90
25438;DHT22;13364;49.084;9.978;2023-11-22T13:41:15;0.80;99.70
25438;DHT22;13364;49.084;9.978;2023-11-22T13:43:42;0.90;99.70
25438;DHT22;13364;49.084;9.978;2023-11-22T13:46:08;1.10;99.60
25438;DHT22;13364;49.084;9.978;2023-11-22T13:48:38;1.20;98.70
25438;DHT22;13364;49.084;9.978;2023-11-22T13:51:06;1.30;97.70
25438;DHT22;13364;49.084;9.978;2023-11-22T13:53:37;1.50;97.30
25438;DHT22;13364;49.084;9.978;2023-11-22T13:56:09;1.50;97.10
25438;DHT22;13364;49.084;9.978;2023-11-22T13:58:36;1.40;96.50
25438;DHT22;13364;49.084;9.978;2023-11-22T14:01:03;1.40;97.20
25438;DHT22;13364;49.084;9.978;2023-11-22T14:03:33;1.50;97.00
25438;DHT22;13364;49.084;9.978;2023-11-22T14:06:00;1.50;97.30
25438;DHT22;13364;49.084;9.978;2023-11-22T14:08:27;1.60;96.40
25438;DHT22;13364;49.084;9.978;2023-11-22T14:10:54;1.50;95.50
25438;DHT22;13364;49.084;9.978;2023-11-22T14:13:20;1.50;95.70
25438;DHT22;13364;49.084;9.978;2023-11-22T14:15:48;1.60;95.50
25438;DHT22;13364;49.084;9.978;2023-11-22T14:18:15;1.60;95.60
25438;DHT22;13364;49.084;9.978;2023-11-22T14:20:44;1.70;95.70
25438;DHT22;13364;49.084;9.978;2023-11-22T14:23:10;1.80;95.80
25438;DHT22;13364;49.084;9.978;2023-11-22T14:25:37;1.80;95.50
25438;DHT22;13364;49.084;9.978;2023-11-22T14:28:08;1.80;95.50
25438;DHT22;13364;49.084;9.978;2023-11-22T14:30:35;1.90;95.30
25438;DHT22;13364;49.084;9.978;2023-11-22T14:33:03;1.90;95.90
25438;DHT22;13364;49.084;9.978;2023-11-22T14:35:35;2.00;95.70
25438;DHT22;13364;49.084;9.978;2023-11-22T14:38:02;2.10;95.50
25438;DHT22;13364;49.084;9.978;2023-11-22T14:40:32;2.20;95.20
25438;DHT22;13364;49.084;9.978;2023-11-22T14:42:59;2.20;94.50
25438;DHT22;13364;49.084;9.978;2023-11-22T14:45:29;2.10;93.80
25438;DHT22;13364;49.084;9.978;2023-11-22T14:47:56;2.10;93.50
25438;DHT22;13364;49.084;9.978;2023-11-22T14:50:24;1.90;93.10
25438;DHT22;13364;49.084;9.978;2023-11-22T14:52:54;1.90;93.80
25438;DHT22;13364;49.084;9.978;2023-11-22T14:55:21;1.90;94.60
25438;DHT22;13364;49.084;9.978;2023-11-22T14:57:50;1.90;94.60
25438;DHT22;13364;49.084;9.978;2023-11-22T15:00:18;1.90;94.20
25438;DHT22;13364;49.084;9.978;2023-11-22T15:02:44;2.00;94.50
25438;DHT22;13364;49.084;9.978;2023-11-22T15:05:18;2.00;94.90
25438;DHT22;13364;49.084;9.978;2023-11-22T15:07:45;2.00;94.50
25438;DHT22;13364;49.084;9.978;2023-11-22T15:10:12;2.00;94.40
25438;DHT22;13364;49.084;9.978;2023-11-22T15:12:41;2.00;94.00
25438;DHT22;13364;49.084;9.978;2023-11-22T15:15:09;2.00;93.90
25438;DHT22;13364;49.084;9.978;2023-11-22T15:17:38;2.10;94.20
25438;DHT22;13364;49.084;9.978;2023-11-22T15:20:08;2.10;94.30
25438;DHT22;13364;49.084;9.978;2023-11-22T15:22:41;2.10;93.90
25438;DHT22;13364;49.084;9.978;2023-11-22T15:25:09;2.10;94.00
25438;DHT22;13364;49.084;9.978;2023-11-22T15:27:41;2.20;94.10
25438;DHT22;13364;49.084;9.978;2023-11-22T15:30:09;2.20;94.30
25438;DHT22;13364;49.084;9.978;2023-11-22T15:32:38;2.20;94.90
25438;DHT22;13364;49.084;9.978;2023-11-22T15:35:05;2.30;95.00
25438;DHT22;13364;49.084;9.978;2023-11-22T15:37:32;2.30;94.20
25438;DHT22;13364;49.084;9.978;2023-11-22T15:39:59;2.20;93.30
25438;DHT22;13364;49.084;9.978;2023-11-22T15:42:27;2.20;93.60
25438;DHT22;13364;49.084;9.978;2023-11-22T15:44:54;2.30;93.50
25438;DHT22;13364;49.084;9.978;2023-11-22T15:47:21;2.20;93.50
25438;DHT22;13364;49.084;9.978;2023-11-22T15:49:48;2.20;94.10
25438;DHT22;13364;49.084;9.978;2023-11-22T15:52:15;2.30;94.20
25438;DHT22;13364;49.084;9.978;2023-11-22T15:54:42;2.30;94.20
25438;DHT22;13364;49.084;9.978;2023-11-22T15:57:09;2.30;94.10
25438;DHT22;13364;49.084;9.978;2023-11-22T15:59:36;2.30;93.90
25438;DHT22;13364;49.084;9.978;2023-11-22T16:02:04;2.30;93.40
25438;DHT22;13364;49.084;9.978;2023-11-22T16:04:31;2.30;93.30
25438;DHT22;13364;49.084;9.978;2023-11-22T16:06:58;2.20;93.30
25438;DHT22;13364;49.084;9.978;2023-11-22T16:09:25;2.30;92.80
25438;DHT22;13364;49.084;9.978;2023-11-22T16:11:53;2.30;92.60
25438;DHT22;13364;49.084;9.978;2023-11-22T16:14:20;2.30;92.50
25438;DHT22;13364;49.084;9.978;2023-11-22T16:16:47;2.30;92.90
25438;DHT22;13364;49.084;9.978;2023-11-22T16:19:13;2.30;93.10
25438;DHT22;13364;49.084;9.978;2023-11-22T16:21:40;2.30;93.50
25438;DHT22;13364;49.084;9.978;2023-11-22T16:24:07;2.30;93.20
25438;DHT22;13364;49.084;9.978;2023-11-22T16:26:34;2.30;93.50
25438;DHT22;13364;49.084;9.978;2023-11-22T16:29:02;2.30;93.80
25438;DHT22;13364;49.084;9.978;2023-11-22T16:31:29;2.30;93.50
25438;DHT22;13364;49.084;9.978;2023-11-22T16:33:56;2.20;92.50
25438;DHT22;13364;49.084;9.978;2023-11-22T16:36:24;2.10;92.70
25438;DHT22;13364;49.084;9.978;2023-11-22T16:38:51;2.10;93.10
25438;DHT22;13364;49.084;9.978;2023-11-22T16:41:21;2.10;93.50
25438;DHT22;13364;49.084;9.978;2023-11-22T16:43:50;2.20;93.20
25438;DHT22;13364;49.084;9.978;2023-11-22T16:46:17;2.20;93.30
25438;DHT22;13364;49.084;9.978;2023-11-22T16:48:44;2.20;92.90
25438;DHT22;13364;49.084;9.978;2023-11-22T16:51:12;2.10;92.80
25438;DHT22;13364;49.084;9.978;2023-11-22T16:53:39;2.10;93.00
25438;DHT22;13364;49.084;9.978;2023-11-22T16:56:08;2.10;92.80
25438;DHT22;13364;49.084;9.978;2023-11-22T16:58:35;2.00;91.90
25438;DHT22;13364;49.084;9.978;2023-11-22T17:01:03;2.00;92.10
25438;DHT22;13364;49.084;9.978;2023-11-22T17:03:30;2.00;92.20
25438;DHT22;13364;49.084;9.978;2023-11-22T17:05:57;2.00;91.80
25438;DHT22;13364;49.084;9.978;2023-11-22T17:08:24;2.00;92.60
25438;DHT22;13364;49.084;9.978;2023-11-22T17:10:51;2.00;93.20
25438;DHT22;13364;49.084;9.978;2023-11-22T17:13:17;2.00;92.90
25438;DHT22;13364;49.084;9.978;2023-11-22T17:15:44;2.00;92.80
25438;DHT22;13364;49.084;9.978;2023-11-22T17:18:12;2.00;92.20
25438;DHT22;13364;49.084;9.978;2023-11-22T17:20:40;2.00;92.10
25438;DHT22;13364;49.084;9.978;2023-11-22T17:23:07;2.00;92.60
25438;DHT22;13364;49.084;9.978;2023-11-22T17:25:35;1.90;92.50
25438;DHT22;13364;49.084;9.978;2023-11-22T17:28:01;1.80;92.40
25438;DHT22;13364;49.084;9.978;2023-11-22T17:30:29;1.70;92.80
25438;DHT22;13364;49.084;9.978;2023-11-22T17:32:55;1.80;93.00
25438;DHT22;13364;49.084;9.978;2023-11-22T17:35:22;1.70;93.10
25438;DHT22;13364;49.084;9.978;2023-11-22T17:37:50;1.70;92.80
25438;DHT22;13364;49.084;9.978;2023-11-22T17:40:19;1.70;93.50
25438;DHT22;13364;49.084;9.978;2023-11-22T17:42:47;1.80;93.60
25438;DHT22;13364;49.084;9.978;2023-11-22T17:45:13;1.90;93.10
25438;DHT22;13364;49.084;9.978;2023-11-22T17:47:42;1.90;93.00
25438;DHT22;13364;49.084;9.978;2023-11-22T17:50:10;1.90;92.60
25438;DHT22;13364;49.084;9.978;2023-11-22T17:52:37;1.90;92.70
25438;DHT22;13364;49.084;9.978;2023-11-22T17:55:04;1.90;92.80
25438;DHT22;13364;49.084;9.978;2023-11-22T17:57:31;1.90;92.90
25438;DHT22;13364;49.084;9.978;2023-11-22T17:59:58;1.90;93.30
25438;DHT22;13364;49.084;9.978;2023-11-22T18:02:25;2.00;93.60
25438;DHT22;13364;49.084;9.978;2023-11-22T18:04:52;2.00;93.90
25438;DHT22;13364;49.084;9.978;2023-11-22T18:07:19;2.10;93.80
25438;DHT22;13364;49.084;9.978;2023-11-22T18:09:48;2.10;93.10
25438;DHT22;13364;49.084;9.978;2023-11-22T18:12:15;2.10;93.10
25438;DHT22;13364;49.084;9.978;2023-11-22T18:14:42;2.10;93.10
25438;DHT22;13364;49.084;9.978;2023-11-22T18:17:12;2.10;92.70
25438;DHT22;13364;49.084;9.978;2023-11-22T18:19:39;2.20;92.90
25438;DHT22;13364;49.084;9.978;2023-11-22T18:22:06;2.20;92.70
25438;DHT22;13364;49.084;9.978;2023-11-22T18:24:33;2.20;92.70
25438;DHT22;13364;49.084;9.978;2023-11-22T18:27:00;2.20;92.90
25438;DHT22;13364;49.084;9.978;2023-11-22T18:29:27;2.20;92.70
25438;DHT22;13364;49.084;9.978;2023-11-22T18:31:54;2.20;92.40
25438;DHT22;13364;49.084;9.978;2023-11-22T18:34:29;2.20;92.70
25438;DHT22;13364;49.084;9.978;2023-11-22T18:37:00;2.20;92.10
25438;DHT22;13364;49.084;9.978;2023-11-22T18:39:31;2.10;92.00
25438;DHT22;13364;49.084;9.978;2023-11-22T18:41:58;2.10;92.00
25438;DHT22;13364;49.084;9.978;2023-11-22T18:44:25;2.10;92.50
25438;DHT22;13364;49.084;9.978;2023-11-22T18:46:52;2.10;92.40
25438;DHT22;13364;49.084;9.978;2023-11-22T18:49:19;2.10;93.30
25438;DHT22;13364;49.084;9.978;2023-11-22T18:51:47;2.00;93.70
25438;DHT22;13364;49.084;9.978;2023-11-22T18:54:14;2.00;93.70
25438;DHT22;13364;49.084;9.978;2023-11-22T18:56:41;2.00;93.60
25438;DHT22;13364;49.084;9.978;2023-11-22T18:59:10;2.00;93.30
25438;DHT22;13364;49.084;9.978;2023-11-22T19:01:37;2.00;93.00
25438;DHT22;13364;49.084;9.978;2023-11-22T19:04:05;2.00;92.80
25438;DHT22;13364;49.084;9.978;2023-11-22T19:06:33;2.00;92.70
25438;DHT22;13364;49.084;9.978;2023-11-22T19:09:00;2.00;92.50
25438;DHT22;13364;49.084;9.978;2023-11-22T19:11:27;2.00;93.10
25438;DHT22;13364;49.084;9.978;2023-11-22T19:13:54;2.00;93.60
25438;DHT22;13364;49.084;9.978;2023-11-22T19:16:21;1.90;94.50
25438;DHT22;13364;49.084;9.978;2023-11-22T19:18:48;2.00;94.20
25438;DHT22;13364;49.084;9.978;2023-11-22T19:21:19;2.00;93.90
25438;DHT22;13364;49.084;9.978;2023-11-22T19:23:46;2.00;94.40
25438;DHT22;13364;49.084;9.978;2023-11-22T19:26:23;2.00;94.40
25438;DHT22;13364;49.084;9.978;2023-11-22T19:28:50;2.00;94.40
25438;DHT22;13364;49.084;9.978;2023-11-22T19:31:18;2.10;94.20
25438;DHT22;13364;49.084;9.978;2023-11-22T19:33:46;2.10;93.90
25438;DHT22;13364;49.084;9.978;2023-11-22T19:36:24;2.10;93.80
25438;DHT22;13364;49.084;9.978;2023-11-22T19:38:52;2.00;93.90
25438;DHT22;13364;49.084;9.978;2023-11-22T19:41:21;2.10;93.40
25438;DHT22;13364;49.084;9.978;2023-11-22T19:43:49;2.00;92.80
25438;DHT22;13364;49.084;9.978;2023-11-22T19:46:15;2.10;92.80
25438;DHT22;13364;49.084;9.978;2023-11-22T19:48:43;2.00;92.40
25438;DHT22;13364;49.084;9.978;2023-11-22T19:51:14;2.00;92.70
25438;DHT22;13364;49.084;9.978;2023-11-22T19:53:41;2.00;92.80
25438;DHT22;13364;49.084;9.978;2023-11-22T19:56:08;2.00;93.10
25438;DHT22;13364;49.084;9.978;2023-11-22T19:58:35;1.90;92.90
25438;DHT22;13364;49.084;9.978;2023-11-22T20:01:02;1.90;92.50
25438;DHT22;13364;49.084;9.978;2023-11-22T20:03:29;1.90;93.00
25438;DHT22;13364;49.084;9.978;2023-11-22T20:05:56;1.90;93.00
25438;DHT22;13364;49.084;9.978;2023-11-22T20:08:23;1.80;93.70
25438;DHT22;13364;49.084;9.978;2023-11-22T20:10:50;1.80;94.50
25438;DHT22;13364;49.084;9.978;2023-11-22T20:13:17;1.70;94.80
25438;DHT22;13364;49.084;9.978;2023-11-22T20:15:43;1.80;95.00
25438;DHT22;13364;49.084;9.978;2023-11-22T20:18:10;1.80;95.10
25438;DHT22;13364;49.084;9.978;2023-11-22T20:20:37;1.80;94.40
25438;DHT22;13364;49.084;9.978;2023-11-22T20:23:04;1.80;94.50
25438;DHT22;13364;49.084;9.978;2023-11-22T20:25:32;1.80;94.30
25438;DHT22;13364;49.084;9.978;2023-11-22T20:27:59;1.80;93.60
25438;DHT22;13364;49.084;9.978;2023-11-22T20:30:26;1.80;93.10
25438;DHT22;13364;49.084;9.978;2023-11-22T20:32:53;1.70;93.00
25438;DHT22;13364;49.084;9.978;2023-11-22T20:35:20;1.70;93.10
25438;DHT22;13364;49.084;9.978;2023-11-22T20:37:47;1.70;93.20
25438;DHT22;13364;49.084;9.978;2023-11-22T20:40:14;1.70;93.70
25438;DHT22;13364;49.084;9.978;2023-11-22T20:42:41;1.70;93.50
25438;DHT22;13364;49.084;9.978;2023-11-22T20:45:08;1.60;93.80
25438;DHT22;13364;49.084;9.978;2023-11-22T20:47:35;1.70;94.50
25438;DHT22;13364;49.084;9.978;2023-11-22T20:50:03;1.70;94.80
25438;DHT22;13364;49.084;9.978;2023-11-22T20:52:32;1.70;94.60